sensor_id;sensor_type;location;lat;lon;timestamp;temperature;humidity
19930;DHT22;10127;47.780;9.606;2023-07-13T00:01:43;19.00;99.90
19930;DHT22;10127;47.780;9.606;2023-07-13T00:04:09;19.00;99.90
19930;DHT22;10127;47.780;9.606;2023-07-13T00:06:34;19.00;99.90
19930;DHT22;10127;47.780;9.606;2023-07-13T00:09:00;19.00;99.90
19930;DHT22;10127;47.780;9.606;2023-07-13T00:11:27;19.00;99.90
19930;DHT22;10127;47.780;9.606;2023-07-13T00:13:53;18.90;99.90
19930;DHT22;10127;47.780;9.606;2023-07-13T00:16:19;19.00;99.90
19930;DHT22;10127;47.780;9.606;2023-07-13T00:18:45;19.00;99.90
19930;DHT22;10127;47.780;9.606;2023-07-13T00:21:11;18.90;99.90
19930;DHT22;10127;47.780;9.606;2023-07-13T00:23:39;18.80;99.90
19930;DHT22;10127;47.780;9.606;2023-07-13T00:26:06;18.90;99.90
19930;DHT22;10127;47.780;9.606;2023-07-13T00:28:33;18.90;99.90
19930;DHT22;10127;47.780;9.606;2023-07-13T00:30:59;18.90;99.90
19930;DHT22;10127;47.780;9.606;2023-07-13T00:33:25;18.90;99.90
19930;DHT22;10127;47.780;9.606;2023-07-13T00:35:50;19.00;99.90
19930;DHT22;10127;47.780;9.606;2023-07-13T00:38:16;19.00;99.90
19930;DHT22;10127;47.780;9.606;2023-07-13T00:40:42;19.00;99.90
19930;DHT22;10127;47.780;9.606;2023-07-13T00:43:14;19.00;99.90
19930;DHT22;10127;47.780;9.606;2023-07-13T00:48:20;19.00;99.90
19930;DHT22;10127;47.780;9.606;2023-07-13T00:50:50;19.00;99.90
19930;DHT22;10127;47.780;9.606;2023-07-13T00:53:17;19.10;99.90
19930;DHT22;10127;47.780;9.606;2023-07-13T00:55:43;19.00;99.90
19930;DHT22;10127;47.780;9.606;2023-07-13T00:58:09;19.00;99.90
19930;DHT22;10127;47.780;9.606;2023-07-13T01:00:36;19.00;99.90
19930;DHT22;10127;47.780;9.606;2023-07-13T01:03:04;18.90;99.90
19930;DHT22;10127;47.780;9.606;2023-07-13T01:05:32;19.00;99.90
19930;DHT22;10127;47.780;9.606;2023-07-13T01:07:59;18.90;99.90
19930;DHT22;10127;47.780;9.606;2023-07-13T01:10:26;18.90;99.90
19930;DHT22;10127;47.780;9.606;2023-07-13T01:12:52;18.90;99.90
19930;DHT22;10127;47.780;9.606;2023-07-13T01:15:37;18.90;99.90
19930;DHT22;10127;47.780;9.606;2023-07-13T01:18:05;19.00;99.90
19930;DHT22;10127;47.780;9.606;2023-07-13T01:20:31;18.90;99.90
19930;DHT22;10127;47.780;9.606;2023-07-13T01:23:03;18.90;99.90
19930;DHT22;10127;47.780;9.606;2023-07-13T01:25:28;18.80;99.90
19930;DHT22;10127;47.780;9.606;2023-07-13T01:27:55;18.80;99.90
19930;DHT22;10127;47.780;9.606;2023-07-13T01:30:20;18.80;99.90
19930;DHT22;10127;47.780;9.606;2023-07-13T01:32:46;18.80;99.90
19930;DHT22;10127;47.780;9.606;2023-07-13T01:35:12;18.80;99.90
19930;DHT22;10127;47.780;9.606;2023-07-13T01:37:38;18.90;99.90
19930;DHT22;10127;47.780;9.606;2023-07-13T01:40:04;18.90;99.90
19930;DHT22;10127;47.780;9.606;2023-07-13T01:42:30;19.00;99.90
19930;DHT22;10127;47.780;9.606;2023-07-13T01:44:56;19.00;99.90
19930;DHT22;10127;47.780;9.606;2023-07-13T01:47:22;19.00;99.90
19930;DHT22;10127;47.780;9.606;2023-07-13T01:49:49;19.00;99.90
19930;DHT22;10127;47.780;9.606;2023-07-13T01:52:16;19.00;99.90
19930;DHT22;10127;47.780;9.606;2023-07-13T01:54:41;19.00;99.90
19930;DHT22;10127;47.780;9.606;2023-07-13T01:57:07;18.90;99.90
19930;DHT22;10127;47.780;9.606;2023-07-13T01:59:32;18.90;99.90
19930;DHT22;10127;47.780;9.606;2023-07-13T02:01:58;19.10;99.90
19930;DHT22;10127;47.780;9.606;2023-07-13T02:04:24;19.00;99.90
19930;DHT22;10127;47.780;9.606;2023-07-13T02:06:49;19.00;99.90
19930;DHT22;10127;47.780;9.606;2023-07-13T02:09:15;19.00;99.90
19930;DHT22;10127;47.780;9.606;2023-07-13T02:11:41;19.10;99.90
19930;DHT22;10127;47.780;9.606;2023-07-13T02:14:06;19.10;99.90
19930;DHT22;10127;47.780;9.606;2023-07-13T02:16:32;19.10;99.90
19930;DHT22;10127;47.780;9.606;2023-07-13T02:18:57;19.20;99.90
19930;DHT22;10127;47.780;9.606;2023-07-13T02:21:23;19.10;99.90
19930;DHT22;10127;47.780;9.606;2023-07-13T02:23:49;19.10;99.90
19930;DHT22;10127;47.780;9.606;2023-07-13T02:26:15;19.20;99.90
19930;DHT22;10127;47.780;9.606;2023-07-13T02:28:41;19.30;99.90
19930;DHT22;10127;47.780;9.606;2023-07-13T02:31:12;19.40;99.90
19930;DHT22;10127;47.780;9.606;2023-07-13T02:33:38;19.40;99.90
19930;DHT22;10127;47.780;9.606;2023-07-13T02:36:04;19.40;99.90
19930;DHT22;10127;47.780;9.606;2023-07-13T02:38:34;19.30;99.90
19930;DHT22;10127;47.780;9.606;2023-07-13T02:41:02;19.30;99.90
19930;DHT22;10127;47.780;9.606;2023-07-13T02:43:28;19.20;99.90
19930;DHT22;10127;47.780;9.606;2023-07-13T02:45:53;19.20;99.90
19930;DHT22;10127;47.780;9.606;2023-07-13T02:48:19;19.20;99.90
19930;DHT22;10127;47.780;9.606;2023-07-13T02:50:45;19.20;99.90
19930;DHT22;10127;47.780;9.606;2023-07-13T02:53:10;19.30;99.90
19930;DHT22;10127;47.780;9.606;2023-07-13T02:55:36;19.30;99.90
19930;DHT22;10127;47.780;9.606;2023-07-13T02:58:02;19.40;99.90
19930;DHT22;10127;47.780;9.606;2023-07-13T03:00:27;19.40;99.90
19930;DHT22;10127;47.780;9.606;2023-07-13T03:02:53;19.30;99.90
19930;DHT22;10127;47.780;9.606;2023-07-13T03:05:23;19.30;99.90
19930;DHT22;10127;47.780;9.606;2023-07-13T03:07:49;19.30;99.90
19930;DHT22;10127;47.780;9.606;2023-07-13T03:10:15;19.30;99.90
19930;DHT22;10127;47.780;9.606;2023-07-13T03:12:41;19.40;99.90
19930;DHT22;10127;47.780;9.606;2023-07-13T03:15:07;19.30;99.90
19930;DHT22;10127;47.780;9.606;2023-07-13T03:17:33;19.40;99.90
19930;DHT22;10127;47.780;9.606;2023-07-13T03:19:58;19.40;99.90
19930;DHT22;10127;47.780;9.606;2023-07-13T03:22:24;19.30;99.90
19930;DHT22;10127;47.780;9.606;2023-07-13T03:24:50;19.20;99.90
19930;DHT22;10127;47.780;9.606;2023-07-13T03:27:17;19.20;99.90
19930;DHT22;10127;47.780;9.606;2023-07-13T03:29:43;19.20;99.90
19930;DHT22;10127;47.780;9.606;2023-07-13T03:32:08;19.20;99.90
19930;DHT22;10127;47.780;9.606;2023-07-13T03:34:34;19.20;99.90
19930;DHT22;10127;47.780;9.606;2023-07-13T03:37:00;19.20;99.90
19930;DHT22;10127;47.780;9.606;2023-07-13T03:39:25;19.20;99.90
19930;DHT22;10127;47.780;9.606;2023-07-13T03:41:52;19.20;99.90
19930;DHT22;10127;47.780;9.606;2023-07-13T03:44:18;19.20;99.90
19930;DHT22;10127;47.780;9.606;2023-07-13T03:46:44;19.10;99.90
19930;DHT22;10127;47.780;9.606;2023-07-13T03:49:10;19.20;99.90
19930;DHT22;10127;47.780;9.606;2023-07-13T03:51:35;19.10;99.90
19930;DHT22;10127;47.780;9.606;2023-07-13T03:54:01;19.10;99.90
19930;DHT22;10127;47.780;9.606;2023-07-13T03:56:28;19.20;99.90
19930;DHT22;10127;47.780;9.606;2023-07-13T03:58:54;19.20;99.90
19930;DHT22;10127;47.780;9.606;2023-07-13T04:01:21;19.20;99.90
19930;DHT22;10127;47.780;9.606;2023-07-13T04:03:47;19.10;99.90
19930;DHT22;10127;47.780;9.606;2023-07-13T04:06:18;19.20;99.90
19930;DHT22;10127;47.780;9.606;2023-07-13T04:08:48;19.20;99.90
19930;DHT22;10127;47.780;9.606;2023-07-13T04:11:15;19.10;99.90
19930;DHT22;10127;47.780;9.606;2023-07-13T04:13:41;19.10;99.90
19930;DHT22;10127;47.780;9.606;2023-07-13T04:16:06;19.20;99.90
19930;DHT22;10127;47.780;9.606;2023-07-13T04:18:32;19.20;99.90
19930;DHT22;10127;47.780;9.606;2023-07-13T04:20:58;19.20;99.90
19930;DHT22;10127;47.780;9.606;2023-07-13T04:23:23;19.20;99.90
19930;DHT22;10127;47.780;9.606;2023-07-13T04:25:51;19.30;99.90
19930;DHT22;10127;47.780;9.606;2023-07-13T04:28:24;19.40;99.90
19930;DHT22;10127;47.780;9.606;2023-07-13T04:30:57;19.50;99.90
19930;DHT22;10127;47.780;9.606;2023-07-13T04:33:23;19.40;99.90
19930;DHT22;10127;47.780;9.606;2023-07-13T04:35:53;19.40;99.90
19930;DHT22;10127;47.780;9.606;2023-07-13T04:38:22;19.40;99.90
19930;DHT22;10127;47.780;9.606;2023-07-13T04:40:48;19.40;99.90
19930;DHT22;10127;47.780;9.606;2023-07-13T04:43:13;19.40;99.90
19930;DHT22;10127;47.780;9.606;2023-07-13T04:45:39;19.40;99.90
19930;DHT22;10127;47.780;9.606;2023-07-13T04:48:05;19.40;99.90
19930;DHT22;10127;47.780;9.606;2023-07-13T04:50:31;19.40;99.90
19930;DHT22;10127;47.780;9.606;2023-07-13T04:52:56;19.50;99.90
19930;DHT22;10127;47.780;9.606;2023-07-13T04:55:22;19.60;99.90
19930;DHT22;10127;47.780;9.606;2023-07-13T04:57:48;19.60;99.90
19930;DHT22;10127;47.780;9.606;2023-07-13T05:00:14;19.70;99.90
19930;DHT22;10127;47.780;9.606;2023-07-13T05:02:43;19.70;99.90
19930;DHT22;10127;47.780;9.606;2023-07-13T05:05:09;19.70;99.90
19930;DHT22;10127;47.780;9.606;2023-07-13T05:07:35;19.70;99.90
19930;DHT22;10127;47.780;9.606;2023-07-13T05:10:01;19.70;99.90
19930;DHT22;10127;47.780;9.606;2023-07-13T05:12:28;19.70;99.90
19930;DHT22;10127;47.780;9.606;2023-07-13T05:14:53;19.70;99.90
19930;DHT22;10127;47.780;9.606;2023-07-13T05:17:19;19.80;99.90
19930;DHT22;10127;47.780;9.606;2023-07-13T05:19:52;19.80;99.90
19930;DHT22;10127;47.780;9.606;2023-07-13T05:22:17;19.80;99.90
19930;DHT22;10127;47.780;9.606;2023-07-13T05:24:43;19.90;99.90
19930;DHT22;10127;47.780;9.606;2023-07-13T05:27:09;19.90;99.90
19930;DHT22;10127;47.780;9.606;2023-07-13T05:29:34;20.00;99.90
19930;DHT22;10127;47.780;9.606;2023-07-13T05:32:00;20.10;99.90
19930;DHT22;10127;47.780;9.606;2023-07-13T05:34:26;20.20;99.90
19930;DHT22;10127;47.780;9.606;2023-07-13T05:36:52;20.30;99.90
19930;DHT22;10127;47.780;9.606;2023-07-13T05:39:18;20.40;99.90
19930;DHT22;10127;47.780;9.606;2023-07-13T05:41:44;20.40;99.90
19930;DHT22;10127;47.780;9.606;2023-07-13T05:44:10;20.40;99.90
19930;DHT22;10127;47.780;9.606;2023-07-13T05:46:42;20.40;99.90
19930;DHT22;10127;47.780;9.606;2023-07-13T05:49:08;20.50;99.90
19930;DHT22;10127;47.780;9.606;2023-07-13T05:51:33;20.40;99.90
19930;DHT22;10127;47.780;9.606;2023-07-13T05:53:59;20.50;99.90
19930;DHT22;10127;47.780;9.606;2023-07-13T05:56:25;20.50;99.90
19930;DHT22;10127;47.780;9.606;2023-07-13T05:58:52;20.50;99.90
19930;DHT22;10127;47.780;9.606;2023-07-13T06:01:17;20.60;99.90
19930;DHT22;10127;47.780;9.606;2023-07-13T06:03:45;20.50;99.90
19930;DHT22;10127;47.780;9.606;2023-07-13T06:06:11;20.50;99.90
19930;DHT22;10127;47.780;9.606;2023-07-13T06:08:37;20.50;99.90
19930;DHT22;10127;47.780;9.606;2023-07-13T06:11:10;20.50;99.90
19930;DHT22;10127;47.780;9.606;2023-07-13T06:13:37;20.60;99.90
19930;DHT22;10127;47.780;9.606;2023-07-13T06:16:03;20.60;99.90
19930;DHT22;10127;47.780;9.606;2023-07-13T06:18:30;20.80;99.90
19930;DHT22;10127;47.780;9.606;2023-07-13T06:20:56;20.80;99.90
19930;DHT22;10127;47.780;9.606;2023-07-13T06:23:23;20.90;99.90
19930;DHT22;10127;47.780;9.606;2023-07-13T06:25:49;21.00;99.90
19930;DHT22;10127;47.780;9.606;2023-07-13T06:28:14;21.10;99.90
19930;DHT22;10127;47.780;9.606;2023-07-13T06:30:40;21.10;99.90
19930;DHT22;10127;47.780;9.606;2023-07-13T06:33:06;20.90;99.90
19930;DHT22;10127;47.780;9.606;2023-07-13T06:35:38;20.90;99.90
19930;DHT22;10127;47.780;9.606;2023-07-13T06:38:04;20.90;99.90
19930;DHT22;10127;47.780;9.606;2023-07-13T06:40:30;20.80;99.90
19930;DHT22;10127;47.780;9.606;2023-07-13T06:42:56;20.80;99.90
19930;DHT22;10127;47.780;9.606;2023-07-13T06:45:21;20.80;99.90
19930;DHT22;10127;47.780;9.606;2023-07-13T06:47:47;20.90;99.90
19930;DHT22;10127;47.780;9.606;2023-07-13T06:50:13;20.90;99.90
19930;DHT22;10127;47.780;9.606;2023-07-13T06:52:38;20.90;99.90
19930;DHT22;10127;47.780;9.606;2023-07-13T06:55:04;20.80;99.90
19930;DHT22;10127;47.780;9.606;2023-07-13T06:57:30;20.80;99.90
19930;DHT22;10127;47.780;9.606;2023-07-13T06:59:56;20.80;99.90
19930;DHT22;10127;47.780;9.606;2023-07-13T07:02:21;20.70;99.90
19930;DHT22;10127;47.780;9.606;2023-07-13T07:04:47;20.70;99.90
19930;DHT22;10127;47.780;9.606;2023-07-13T07:07:12;20.80;99.90
19930;DHT22;10127;47.780;9.606;2023-07-13T07:09:38;20.90;99.90
19930;DHT22;10127;47.780;9.606;2023-07-13T07:12:04;21.00;99.90
19930;DHT22;10127;47.780;9.606;2023-07-13T07:14:30;21.10;99.90
19930;DHT22;10127;47.780;9.606;2023-07-13T07:16:56;21.30;99.90
19930;DHT22;10127;47.780;9.606;2023-07-13T07:19:21;21.30;99.90
19930;DHT22;10127;47.780;9.606;2023-07-13T07:21:48;21.30;99.90
19930;DHT22;10127;47.780;9.606;2023-07-13T07:24:14;21.30;99.90
19930;DHT22;10127;47.780;9.606;2023-07-13T07:26:41;21.20;99.90
19930;DHT22;10127;47.780;9.606;2023-07-13T07:29:06;21.20;99.90
19930;DHT22;10127;47.780;9.606;2023-07-13T07:31:32;21.20;99.90
19930;DHT22;10127;47.780;9.606;2023-07-13T07:33:58;21.20;99.90
19930;DHT22;10127;47.780;9.606;2023-07-13T07:36:23;21.20;99.90
19930;DHT22;10127;47.780;9.606;2023-07-13T07:38:49;21.30;99.90
19930;DHT22;10127;47.780;9.606;2023-07-13T07:41:14;21.20;99.90
19930;DHT22;10127;47.780;9.606;2023-07-13T07:43:40;21.30;99.90
19930;DHT22;10127;47.780;9.606;2023-07-13T07:46:06;21.30;99.90
19930;DHT22;10127;47.780;9.606;2023-07-13T07:48:32;21.30;99.90
19930;DHT22;10127;47.780;9.606;2023-07-13T07:50:57;21.40;99.90
19930;DHT22;10127;47.780;9.606;2023-07-13T07:53:23;21.60;99.90
19930;DHT22;10127;47.780;9.606;2023-07-13T07:55:49;21.80;99.90
19930;DHT22;10127;47.780;9.606;2023-07-13T07:58:15;21.90;99.90
19930;DHT22;10127;47.780;9.606;2023-07-13T08:00:40;21.70;99.90
19930;DHT22;10127;47.780;9.606;2023-07-13T08:03:06;21.70;99.90
19930;DHT22;10127;47.780;9.606;2023-07-13T08:05:35;21.70;99.90
19930;DHT22;10127;47.780;9.606;2023-07-13T08:08:01;21.70;99.90
19930;DHT22;10127;47.780;9.606;2023-07-13T08:10:27;21.90;99.90
19930;DHT22;10127;47.780;9.606;2023-07-13T08:12:52;21.80;99.90
19930;DHT22;10127;47.780;9.606;2023-07-13T08:15:18;21.70;99.90
19930;DHT22;10127;47.780;9.606;2023-07-13T08:17:46;21.70;99.90
19930;DHT22;10127;47.780;9.606;2023-07-13T08:20:12;21.70;99.90
19930;DHT22;10127;47.780;9.606;2023-07-13T08:22:38;21.60;99.90
19930;DHT22;10127;47.780;9.606;2023-07-13T08:25:04;21.50;99.90
19930;DHT22;10127;47.780;9.606;2023-07-13T08:27:30;21.40;99.90
19930;DHT22;10127;47.780;9.606;2023-07-13T08:29:55;21.50;99.90
19930;DHT22;10127;47.780;9.606;2023-07-13T08:32:22;21.80;99.90
19930;DHT22;10127;47.780;9.606;2023-07-13T08:34:48;21.60;99.90
19930;DHT22;10127;47.780;9.606;2023-07-13T08:37:15;21.70;99.90
19930;DHT22;10127;47.780;9.606;2023-07-13T08:39:41;21.70;99.90
19930;DHT22;10127;47.780;9.606;2023-07-13T08:42:14;22.00;99.90
19930;DHT22;10127;47.780;9.606;2023-07-13T08:47:33;22.10;99.90
19930;DHT22;10127;47.780;9.606;2023-07-13T08:50:01;22.10;99.90
19930;DHT22;10127;47.780;9.606;2023-07-13T08:52:34;22.20;99.90
19930;DHT22;10127;47.780;9.606;2023-07-13T08:55:21;22.30;99.90
19930;DHT22;10127;47.780;9.606;2023-07-13T08:57:53;22.40;99.90
19930;DHT22;10127;47.780;9.606;2023-07-13T09:00:20;22.70;99.90
19930;DHT22;10127;47.780;9.606;2023-07-13T09:02:57;22.80;99.90
19930;DHT22;10127;47.780;9.606;2023-07-13T09:05:34;22.80;99.90
19930;DHT22;10127;47.780;9.606;2023-07-13T09:11:01;22.90;99.90
19930;DHT22;10127;47.780;9.606;2023-07-13T09:16:02;22.70;99.90
19930;DHT22;10127;47.780;9.606;2023-07-13T09:18:36;22.60;99.90
19930;DHT22;10127;47.780;9.606;2023-07-13T09:21:05;22.50;99.90
19930;DHT22;10127;47.780;9.606;2023-07-13T09:23:34;22.50;99.90
19930;DHT22;10127;47.780;9.606;2023-07-13T09:26:23;22.80;99.90
19930;DHT22;10127;47.780;9.606;2023-07-13T09:28:51;23.00;99.90
19930;DHT22;10127;47.780;9.606;2023-07-13T09:31:39;23.40;99.90
19930;DHT22;10127;47.780;9.606;2023-07-13T09:34:11;23.50;99.90
19930;DHT22;10127;47.780;9.606;2023-07-13T09:36:36;23.70;99.90
19930;DHT22;10127;47.780;9.606;2023-07-13T09:41:47;23.80;99.90
19930;DHT22;10127;47.780;9.606;2023-07-13T09:44:18;23.50;99.90
19930;DHT22;10127;47.780;9.606;2023-07-13T09:47:02;23.60;99.90
19930;DHT22;10127;47.780;9.606;2023-07-13T09:49:35;23.70;99.90
19930;DHT22;10127;47.780;9.606;2023-07-13T09:52:06;23.80;99.90
19930;DHT22;10127;47.780;9.606;2023-07-13T09:54:36;23.70;99.90
19930;DHT22;10127;47.780;9.606;2023-07-13T09:57:03;23.50;99.90
19930;DHT22;10127;47.780;9.606;2023-07-13T09:59:33;23.30;99.90
19930;DHT22;10127;47.780;9.606;2023-07-13T10:01:58;23.10;99.90
19930;DHT22;10127;47.780;9.606;2023-07-13T10:04:42;23.00;99.90
19930;DHT22;10127;47.780;9.606;2023-07-13T10:07:11;23.10;99.90
19930;DHT22;10127;47.780;9.606;2023-07-13T10:09:38;23.30;99.90
19930;DHT22;10127;47.780;9.606;2023-07-13T10:12:14;23.60;99.90
19930;DHT22;10127;47.780;9.606;2023-07-13T10:14:41;23.70;99.90
19930;DHT22;10127;47.780;9.606;2023-07-13T10:17:12;23.90;99.90
19930;DHT22;10127;47.780;9.606;2023-07-13T10:19:41;24.30;99.90
19930;DHT22;10127;47.780;9.606;2023-07-13T10:22:20;24.50;99.90
19930;DHT22;10127;47.780;9.606;2023-07-13T10:24:49;24.30;99.90
19930;DHT22;10127;47.780;9.606;2023-07-13T10:27:23;24.00;99.90
19930;DHT22;10127;47.780;9.606;2023-07-13T10:30:17;23.90;99.90
19930;DHT22;10127;47.780;9.606;2023-07-13T10:32:46;23.60;99.90
19930;DHT22;10127;47.780;9.606;2023-07-13T10:35:14;23.40;99.90
19930;DHT22;10127;47.780;9.606;2023-07-13T10:40:24;23.50;99.90
19930;DHT22;10127;47.780;9.606;2023-07-13T10:42:54;24.00;99.90
19930;DHT22;10127;47.780;9.606;2023-07-13T10:45:22;24.40;99.90
19930;DHT22;10127;47.780;9.606;2023-07-13T10:47:51;24.60;99.90
19930;DHT22;10127;47.780;9.606;2023-07-13T10:50:27;24.70;99.90
19930;DHT22;10127;47.780;9.606;2023-07-13T10:53:03;24.20;99.90
19930;DHT22;10127;47.780;9.606;2023-07-13T11:03:28;23.10;99.90
19930;DHT22;10127;47.780;9.606;2023-07-13T11:11:35;22.70;99.90
19930;DHT22;10127;47.780;9.606;2023-07-13T11:14:03;22.80;99.90
19930;DHT22;10127;47.780;9.606;2023-07-13T11:16:45;23.10;99.90
19930;DHT22;10127;47.780;9.606;2023-07-13T11:22:10;23.70;99.90
19930;DHT22;10127;47.780;9.606;2023-07-13T11:25:21;24.00;99.90
19930;DHT22;10127;47.780;9.606;2023-07-13T11:28:04;24.60;99.90
19930;DHT22;10127;47.780;9.606;2023-07-13T11:30:36;24.70;99.90
19930;DHT22;10127;47.780;9.606;2023-07-13T11:35:37;24.50;99.90
19930;DHT22;10127;47.780;9.606;2023-07-13T11:40:53;24.80;99.90
19930;DHT22;10127;47.780;9.606;2023-07-13T11:43:19;24.60;99.90
19930;DHT22;10127;47.780;9.606;2023-07-13T11:45:45;24.70;99.90
19930;DHT22;10127;47.780;9.606;2023-07-13T11:48:26;24.70;99.90
19930;DHT22;10127;47.780;9.606;2023-07-13T11:50:56;24.60;99.90
19930;DHT22;10127;47.780;9.606;2023-07-13T11:53:24;24.60;99.90
19930;DHT22;10127;47.780;9.606;2023-07-13T11:55:51;24.60;99.90
19930;DHT22;10127;47.780;9.606;2023-07-13T11:58:21;24.80;99.90
19930;DHT22;10127;47.780;9.606;2023-07-13T12:00:51;25.30;99.90
19930;DHT22;10127;47.780;9.606;2023-07-13T12:03:21;25.10;99.90
19930;DHT22;10127;47.780;9.606;2023-07-13T12:06:03;25.40;99.90
19930;DHT22;10127;47.780;9.606;2023-07-13T12:08:31;25.50;99.90
19930;DHT22;10127;47.780;9.606;2023-07-13T12:11:11;25.30;99.90
19930;DHT22;10127;47.780;9.606;2023-07-13T12:13:40;25.40;99.90
19930;DHT22;10127;47.780;9.606;2023-07-13T12:16:30;25.30;99.90
19930;DHT22;10127;47.780;9.606;2023-07-13T12:18:59;25.20;99.90
19930;DHT22;10127;47.780;9.606;2023-07-13T12:21:37;25.40;99.90
19930;DHT22;10127;47.780;9.606;2023-07-13T12:24:05;25.40;99.90
19930;DHT22;10127;47.780;9.606;2023-07-13T12:26:38;25.40;99.90
19930;DHT22;10127;47.780;9.606;2023-07-13T12:29:06;25.50;99.90
19930;DHT22;10127;47.780;9.606;2023-07-13T12:31:36;25.30;99.90
19930;DHT22;10127;47.780;9.606;2023-07-13T12:34:08;24.90;99.90
19930;DHT22;10127;47.780;9.606;2023-07-13T12:36:38;24.40;99.90
19930;DHT22;10127;47.780;9.606;2023-07-13T12:39:35;24.40;99.90
19930;DHT22;10127;47.780;9.606;2023-07-13T12:42:21;24.30;99.90
19930;DHT22;10127;47.780;9.606;2023-07-13T12:44:50;24.40;99.90
19930;DHT22;10127;47.780;9.606;2023-07-13T12:47:20;24.40;99.90
19930;DHT22;10127;47.780;9.606;2023-07-13T12:49:55;24.60;99.90
19930;DHT22;10127;47.780;9.606;2023-07-13T12:52:27;24.80;99.90
19930;DHT22;10127;47.780;9.606;2023-07-13T12:55:07;25.10;99.90
19930;DHT22;10127;47.780;9.606;2023-07-13T12:57:59;25.50;99.90
19930;DHT22;10127;47.780;9.606;2023-07-13T13:00:35;26.00;99.90
19930;DHT22;10127;47.780;9.606;2023-07-13T13:03:29;26.20;99.90
19930;DHT22;10127;47.780;9.606;2023-07-13T13:06:06;26.00;99.90
19930;DHT22;10127;47.780;9.606;2023-07-13T13:08:47;25.90;99.90
19930;DHT22;10127;47.780;9.606;2023-07-13T13:11:17;25.80;99.90
19930;DHT22;10127;47.780;9.606;2023-07-13T13:13:43;25.70;99.90
19930;DHT22;10127;47.780;9.606;2023-07-13T13:16:14;25.80;99.90
19930;DHT22;10127;47.780;9.606;2023-07-13T13:18:42;25.70;99.90
19930;DHT22;10127;47.780;9.606;2023-07-13T13:21:09;25.70;99.90
19930;DHT22;10127;47.780;9.606;2023-07-13T13:23:35;25.60;99.90
19930;DHT22;10127;47.780;9.606;2023-07-13T13:26:02;25.60;99.90
19930;DHT22;10127;47.780;9.606;2023-07-13T13:28:28;25.50;99.90
19930;DHT22;10127;47.780;9.606;2023-07-13T13:30:54;25.60;99.90
19930;DHT22;10127;47.780;9.606;2023-07-13T13:33:21;25.90;99.90
19930;DHT22;10127;47.780;9.606;2023-07-13T13:35:47;26.10;99.90
19930;DHT22;10127;47.780;9.606;2023-07-13T13:38:17;26.30;99.90
19930;DHT22;10127;47.780;9.606;2023-07-13T13:40:45;26.20;99.90
19930;DHT22;10127;47.780;9.606;2023-07-13T13:43:21;26.40;99.90
19930;DHT22;10127;47.780;9.606;2023-07-13T13:45:52;26.50;99.90
19930;DHT22;10127;47.780;9.606;2023-07-13T13:48:20;26.30;99.90
19930;DHT22;10127;47.780;9.606;2023-07-13T13:50:47;26.20;99.90
19930;DHT22;10127;47.780;9.606;2023-07-13T13:53:13;26.50;99.90
19930;DHT22;10127;47.780;9.606;2023-07-13T13:55:40;26.50;99.90
19930;DHT22;10127;47.780;9.606;2023-07-13T13:58:08;26.40;99.90
19930;DHT22;10127;47.780;9.606;2023-07-13T14:00:35;26.20;99.90
19930;DHT22;10127;47.780;9.606;2023-07-13T14:03:00;26.10;99.90
19930;DHT22;10127;47.780;9.606;2023-07-13T14:05:27;26.10;99.90
19930;DHT22;10127;47.780;9.606;2023-07-13T14:07:53;26.20;99.90
19930;DHT22;10127;47.780;9.606;2023-07-13T14:10:20;26.20;99.90
19930;DHT22;10127;47.780;9.606;2023-07-13T14:12:53;26.40;99.90
19930;DHT22;10127;47.780;9.606;2023-07-13T14:15:21;26.60;99.90
19930;DHT22;10127;47.780;9.606;2023-07-13T14:17:47;26.70;99.90
19930;DHT22;10127;47.780;9.606;2023-07-13T14:20:18;26.70;99.90
19930;DHT22;10127;47.780;9.606;2023-07-13T14:22:52;26.60;99.90
19930;DHT22;10127;47.780;9.606;2023-07-13T14:25:19;26.50;99.90
19930;DHT22;10127;47.780;9.606;2023-07-13T14:27:48;26.50;99.90
19930;DHT22;10127;47.780;9.606;2023-07-13T14:30:15;26.70;99.90
19930;DHT22;10127;47.780;9.606;2023-07-13T14:32:41;26.80;99.90
19930;DHT22;10127;47.780;9.606;2023-07-13T14:35:16;26.80;99.90
19930;DHT22;10127;47.780;9.606;2023-07-13T14:37:42;26.70;99.90
19930;DHT22;10127;47.780;9.606;2023-07-13T14:40:21;26.60;99.90
19930;DHT22;10127;47.780;9.606;2023-07-13T14:42:50;26.60;99.90
19930;DHT22;10127;47.780;9.606;2023-07-13T14:45:18;26.60;99.90
19930;DHT22;10127;47.780;9.606;2023-07-13T14:47:44;26.70;99.90
19930;DHT22;10127;47.780;9.606;2023-07-13T14:50:15;26.60;99.90
19930;DHT22;10127;47.780;9.606;2023-07-13T14:52:41;26.70;99.90
19930;DHT22;10127;47.780;9.606;2023-07-13T14:55:16;26.80;99.90
19930;DHT22;10127;47.780;9.606;2023-07-13T14:57:42;26.90;99.90
19930;DHT22;10127;47.780;9.606;2023-07-13T15:00:19;27.10;99.90
19930;DHT22;10127;47.780;9.606;2023-07-13T15:02:48;27.40;99.90
19930;DHT22;10127;47.780;9.606;2023-07-13T15:05:21;27.40;99.90
19930;DHT22;10127;47.780;9.606;2023-07-13T15:07:48;27.30;99.90
19930;DHT22;10127;47.780;9.606;2023-07-13T15:10:22;27.40;99.90
19930;DHT22;10127;47.780;9.606;2023-07-13T15:12:51;27.30;99.90
19930;DHT22;10127;47.780;9.606;2023-07-13T15:15:18;27.70;99.90
19930;DHT22;10127;47.780;9.606;2023-07-13T15:17:47;27.70;99.90
19930;DHT22;10127;47.780;9.606;2023-07-13T15:20:29;27.90;99.90
19930;DHT22;10127;47.780;9.606;2023-07-13T15:22:56;27.90;99.90
19930;DHT22;10127;47.780;9.606;2023-07-13T15:25:27;28.10;99.90
19930;DHT22;10127;47.780;9.606;2023-07-13T15:27:54;28.10;99.90
19930;DHT22;10127;47.780;9.606;2023-07-13T15:30:21;27.70;99.90
19930;DHT22;10127;47.780;9.606;2023-07-13T15:32:53;27.40;99.90
19930;DHT22;10127;47.780;9.606;2023-07-13T15:35:25;27.20;99.90
19930;DHT22;10127;47.780;9.606;2023-07-13T15:37:51;27.20;99.90
19930;DHT22;10127;47.780;9.606;2023-07-13T15:40:18;27.80;99.90
19930;DHT22;10127;47.780;9.606;2023-07-13T15:42:46;29.60;99.50
19930;DHT22;10127;47.780;9.606;2023-07-13T15:45:21;33.30;95.00
19930;DHT22;10127;47.780;9.606;2023-07-13T15:47:48;35.60;89.80
19930;DHT22;10127;47.780;9.606;2023-07-13T15:50:24;38.20;82.00
19930;DHT22;10127;47.780;9.606;2023-07-13T15:52:52;37.00;78.20
19930;DHT22;10127;47.780;9.606;2023-07-13T15:55:19;41.10;69.20
19930;DHT22;10127;47.780;9.606;2023-07-13T15:57:50;41.00;62.60
19930;DHT22;10127;47.780;9.606;2023-07-13T16:00:18;42.20;60.10
19930;DHT22;10127;47.780;9.606;2023-07-13T16:02:46;43.40;56.40
19930;DHT22;10127;47.780;9.606;2023-07-13T16:05:11;44.40;53.70
19930;DHT22;10127;47.780;9.606;2023-07-13T16:07:37;43.80;53.90
19930;DHT22;10127;47.780;9.606;2023-07-13T16:10:03;44.10;52.60
19930;DHT22;10127;47.780;9.606;2023-07-13T16:12:29;44.10;52.00
19930;DHT22;10127;47.780;9.606;2023-07-13T16:15:02;44.70;51.20
19930;DHT22;10127;47.780;9.606;2023-07-13T16:17:28;45.30;50.00